sensor_id;sensor_type;location;lat;lon;timestamp;temperature;humidity
33528;DHT22;19861;42.868;74.608;2022-08-25T00:01:44;19.40;43.90
33528;DHT22;19861;42.868;74.608;2022-08-25T00:04:12;19.60;43.60
33528;DHT22;19861;42.868;74.608;2022-08-25T00:06:40;19.80;42.90
33528;DHT22;19861;42.868;74.608;2022-08-25T00:09:09;19.80;42.70
33528;DHT22;19861;42.868;74.608;2022-08-25T00:11:37;19.80;43.10
33528;DHT22;19861;42.868;74.608;2022-08-25T00:14:08;19.70;44.50
33528;DHT22;19861;42.868;74.608;2022-08-25T00:16:35;19.80;43.60
33528;DHT22;19861;42.868;74.608;2022-08-25T00:19:07;19.80;43.80
33528;DHT22;19861;42.868;74.608;2022-08-25T00:21:34;19.80;43.10
33528;DHT22;19861;42.868;74.608;2022-08-25T00:24:01;19.80;42.90
33528;DHT22;19861;42.868;74.608;2022-08-25T00:26:29;19.80;43.00
33528;DHT22;19861;42.868;74.608;2022-08-25T00:28:56;19.70;43.30
33528;DHT22;19861;42.868;74.608;2022-08-25T00:31:22;19.70;43.10
33528;DHT22;19861;42.868;74.608;2022-08-25T00:33:50;19.70;43.00
33528;DHT22;19861;42.868;74.608;2022-08-25T00:36:18;19.60;42.80
33528;DHT22;19861;42.868;74.608;2022-08-25T00:38:47;19.30;43.50
33528;DHT22;19861;42.868;74.608;2022-08-25T00:41:19;19.30;43.70
33528;DHT22;19861;42.868;74.608;2022-08-25T00:44:12;19.40;43.40
33528;DHT22;19861;42.868;74.608;2022-08-25T00:46:42;19.30;43.30
33528;DHT22;19861;42.868;74.608;2022-08-25T00:49:13;19.40;43.50
33528;DHT22;19861;42.868;74.608;2022-08-25T00:51:58;19.40;43.60
33528;DHT22;19861;42.868;74.608;2022-08-25T00:54:28;19.20;43.70
33528;DHT22;19861;42.868;74.608;2022-08-25T00:56:57;19.00;44.30
33528;DHT22;19861;42.868;74.608;2022-08-25T00:59:24;18.90;45.00
33528;DHT22;19861;42.868;74.608;2022-08-25T01:01:51;18.90;45.00
33528;DHT22;19861;42.868;74.608;2022-08-25T01:04:18;18.90;45.00
33528;DHT22;19861;42.868;74.608;2022-08-25T01:06:47;19.00;45.10
33528;DHT22;19861;42.868;74.608;2022-08-25T01:09:14;18.80;46.20
33528;DHT22;19861;42.868;74.608;2022-08-25T01:11:41;18.90;45.40
33528;DHT22;19861;42.868;74.608;2022-08-25T01:14:11;18.90;45.00
33528;DHT22;19861;42.868;74.608;2022-08-25T01:16:38;18.80;45.40
33528;DHT22;19861;42.868;74.608;2022-08-25T01:19:06;18.70;45.60
33528;DHT22;19861;42.868;74.608;2022-08-25T01:21:39;18.70;45.50
33528;DHT22;19861;42.868;74.608;2022-08-25T01:24:06;18.60;45.60
33528;DHT22;19861;42.868;74.608;2022-08-25T01:26:34;18.80;46.10
33528;DHT22;19861;42.868;74.608;2022-08-25T01:29:03;18.80;45.10
33528;DHT22;19861;42.868;74.608;2022-08-25T01:31:59;18.90;44.40
33528;DHT22;19861;42.868;74.608;2022-08-25T01:34:28;19.00;44.60
33528;DHT22;19861;42.868;74.608;2022-08-25T01:36:56;19.00;45.70
33528;DHT22;19861;42.868;74.608;2022-08-25T01:39:23;19.00;44.70
33528;DHT22;19861;42.868;74.608;2022-08-25T01:44:45;18.90;46.40
33528;DHT22;19861;42.868;74.608;2022-08-25T01:47:12;19.10;45.00
33528;DHT22;19861;42.868;74.608;2022-08-25T01:49:38;19.30;44.90
33528;DHT22;19861;42.868;74.608;2022-08-25T01:52:28;19.40;44.10
33528;DHT22;19861;42.868;74.608;2022-08-25T01:54:56;19.60;44.40
33528;DHT22;19861;42.868;74.608;2022-08-25T01:57:23;19.60;44.40
33528;DHT22;19861;42.868;74.608;2022-08-25T01:59:49;19.80;44.40
33528;DHT22;19861;42.868;74.608;2022-08-25T02:02:15;19.70;44.40
33528;DHT22;19861;42.868;74.608;2022-08-25T02:04:41;19.90;44.00
33528;DHT22;19861;42.868;74.608;2022-08-25T02:07:08;20.30;43.50
33528;DHT22;19861;42.868;74.608;2022-08-25T02:09:35;20.70;42.40
33528;DHT22;19861;42.868;74.608;2022-08-25T02:12:02;21.00;42.00
33528;DHT22;19861;42.868;74.608;2022-08-25T02:14:28;21.00;42.10
33528;DHT22;19861;42.868;74.608;2022-08-25T02:16:55;21.10;41.80
33528;DHT22;19861;42.868;74.608;2022-08-25T02:19:22;21.20;41.80
33528;DHT22;19861;42.868;74.608;2022-08-25T02:21:50;21.20;41.70
33528;DHT22;19861;42.868;74.608;2022-08-25T02:24:17;21.30;41.50
33528;DHT22;19861;42.868;74.608;2022-08-25T02:26:43;21.40;41.40
33528;DHT22;19861;42.868;74.608;2022-08-25T02:29:10;21.40;41.00
33528;DHT22;19861;42.868;74.608;2022-08-25T02:31:36;21.50;41.20
33528;DHT22;19861;42.868;74.608;2022-08-25T02:34:03;22.00;40.90
33528;DHT22;19861;42.868;74.608;2022-08-25T02:36:30;22.60;39.70
33528;DHT22;19861;42.868;74.608;2022-08-25T02:38:57;23.50;38.30
33528;DHT22;19861;42.868;74.608;2022-08-25T02:41:24;24.20;37.00
33528;DHT22;19861;42.868;74.608;2022-08-25T02:43:51;24.90;35.90
33528;DHT22;19861;42.868;74.608;2022-08-25T02:46:19;25.60;35.00
33528;DHT22;19861;42.868;74.608;2022-08-25T02:48:47;26.00;34.00
33528;DHT22;19861;42.868;74.608;2022-08-25T02:51:14;26.40;33.70
33528;DHT22;19861;42.868;74.608;2022-08-25T02:53:41;26.40;33.90
33528;DHT22;19861;42.868;74.608;2022-08-25T02:56:09;26.30;33.10
33528;DHT22;19861;42.868;74.608;2022-08-25T02:58:36;26.70;33.20
33528;DHT22;19861;42.868;74.608;2022-08-25T03:01:06;26.60;33.00
33528;DHT22;19861;42.868;74.608;2022-08-25T03:03:32;26.40;33.40
33528;DHT22;19861;42.868;74.608;2022-08-25T03:05:59;26.00;33.30
33528;DHT22;19861;42.868;74.608;2022-08-25T03:08:26;25.60;33.70
33528;DHT22;19861;42.868;74.608;2022-08-25T03:10:52;25.30;34.40
33528;DHT22;19861;42.868;74.608;2022-08-25T03:13:18;24.80;35.10
33528;DHT22;19861;42.868;74.608;2022-08-25T03:15:44;24.60;35.90
33528;DHT22;19861;42.868;74.608;2022-08-25T03:18:11;24.20;35.70
33528;DHT22;19861;42.868;74.608;2022-08-25T03:20:38;23.70;37.00
33528;DHT22;19861;42.868;74.608;2022-08-25T03:23:05;23.60;37.40
33528;DHT22;19861;42.868;74.608;2022-08-25T03:25:32;23.50;38.00
33528;DHT22;19861;42.868;74.608;2022-08-25T03:28:19;23.40;38.40
33528;DHT22;19861;42.868;74.608;2022-08-25T03:30:45;23.50;38.60
33528;DHT22;19861;42.868;74.608;2022-08-25T03:33:12;23.40;39.00
33528;DHT22;19861;42.868;74.608;2022-08-25T03:35:38;23.20;39.20
33528;DHT22;19861;42.868;74.608;2022-08-25T03:38:04;23.30;39.10
33528;DHT22;19861;42.868;74.608;2022-08-25T03:40:30;22.60;40.50
33528;DHT22;19861;42.868;74.608;2022-08-25T03:42:57;22.50;41.00
33528;DHT22;19861;42.868;74.608;2022-08-25T03:45:24;22.60;40.80
33528;DHT22;19861;42.868;74.608;2022-08-25T03:47:51;22.70;40.80
33528;DHT22;19861;42.868;74.608;2022-08-25T03:50:19;22.80;40.60
33528;DHT22;19861;42.868;74.608;2022-08-25T03:52:50;22.80;41.00
33528;DHT22;19861;42.868;74.608;2022-08-25T03:55:17;22.80;41.10
33528;DHT22;19861;42.868;74.608;2022-08-25T03:57:43;22.70;41.20
33528;DHT22;19861;42.868;74.608;2022-08-25T04:00:10;22.80;41.00
33528;DHT22;19861;42.868;74.608;2022-08-25T04:02:39;22.90;40.70
33528;DHT22;19861;42.868;74.608;2022-08-25T04:05:06;22.80;41.20
33528;DHT22;19861;42.868;74.608;2022-08-25T04:07:33;22.60;41.90
33528;DHT22;19861;42.868;74.608;2022-08-25T04:09:59;22.20;41.20
33528;DHT22;19861;42.868;74.608;2022-08-25T04:12:25;22.20;40.90
33528;DHT22;19861;42.868;74.608;2022-08-25T04:14:51;22.30;41.20
33528;DHT22;19861;42.868;74.608;2022-08-25T04:17:18;22.30;41.00
33528;DHT22;19861;42.868;74.608;2022-08-25T04:19:44;22.50;40.40
33528;DHT22;19861;42.868;74.608;2022-08-25T04:22:10;22.50;39.80
33528;DHT22;19861;42.868;74.608;2022-08-25T04:24:36;22.40;39.90
33528;DHT22;19861;42.868;74.608;2022-08-25T04:27:02;22.70;40.30
33528;DHT22;19861;42.868;74.608;2022-08-25T04:29:28;22.80;39.80
33528;DHT22;19861;42.868;74.608;2022-08-25T04:32:01;22.20;40.20
33528;DHT22;19861;42.868;74.608;2022-08-25T04:34:27;22.30;40.90
33528;DHT22;19861;42.868;74.608;2022-08-25T04:36:53;22.40;41.80
33528;DHT22;19861;42.868;74.608;2022-08-25T04:39:20;22.70;41.00
33528;DHT22;19861;42.868;74.608;2022-08-25T04:41:47;23.00;41.70
33528;DHT22;19861;42.868;74.608;2022-08-25T04:44:13;23.20;40.90
33528;DHT22;19861;42.868;74.608;2022-08-25T04:46:39;23.40;40.40
33528;DHT22;19861;42.868;74.608;2022-08-25T04:49:06;23.30;40.40
33528;DHT22;19861;42.868;74.608;2022-08-25T04:51:35;23.40;40.00
33528;DHT22;19861;42.868;74.608;2022-08-25T04:54:05;23.20;40.90
33528;DHT22;19861;42.868;74.608;2022-08-25T04:56:33;23.30;41.40
33528;DHT22;19861;42.868;74.608;2022-08-25T04:59:11;23.30;41.40
33528;DHT22;19861;42.868;74.608;2022-08-25T05:01:38;23.60;40.30
33528;DHT22;19861;42.868;74.608;2022-08-25T05:04:07;23.90;39.80
33528;DHT22;19861;42.868;74.608;2022-08-25T05:06:33;23.70;40.30
33528;DHT22;19861;42.868;74.608;2022-08-25T05:09:00;23.60;40.10
33528;DHT22;19861;42.868;74.608;2022-08-25T05:11:26;23.90;39.40
33528;DHT22;19861;42.868;74.608;2022-08-25T05:13:53;23.90;38.80
33528;DHT22;19861;42.868;74.608;2022-08-25T05:16:22;23.80;39.50
33528;DHT22;19861;42.868;74.608;2022-08-25T05:18:51;24.10;39.10
33528;DHT22;19861;42.868;74.608;2022-08-25T05:21:20;24.00;39.70
33528;DHT22;19861;42.868;74.608;2022-08-25T05:23:47;24.00;39.60
33528;DHT22;19861;42.868;74.608;2022-08-25T05:26:17;24.20;39.70
33528;DHT22;19861;42.868;74.608;2022-08-25T05:28:43;24.40;39.40
33528;DHT22;19861;42.868;74.608;2022-08-25T05:31:11;24.30;38.70
33528;DHT22;19861;42.868;74.608;2022-08-25T05:33:39;23.70;40.40
33528;DHT22;19861;42.868;74.608;2022-08-25T05:36:07;23.60;40.90
33528;DHT22;19861;42.868;74.608;2022-08-25T05:38:33;23.50;40.70
33528;DHT22;19861;42.868;74.608;2022-08-25T05:41:03;23.30;41.60
33528;DHT22;19861;42.868;74.608;2022-08-25T05:43:30;23.50;40.80
33528;DHT22;19861;42.868;74.608;2022-08-25T05:45:57;23.70;41.10
33528;DHT22;19861;42.868;74.608;2022-08-25T05:48:24;23.80;41.10
33528;DHT22;19861;42.868;74.608;2022-08-25T05:51:01;23.70;40.50
33528;DHT22;19861;42.868;74.608;2022-08-25T05:53:29;23.90;40.80
33528;DHT22;19861;42.868;74.608;2022-08-25T05:55:56;24.00;40.30
33528;DHT22;19861;42.868;74.608;2022-08-25T05:58:24;24.20;39.90
33528;DHT22;19861;42.868;74.608;2022-08-25T06:00:53;24.20;40.50
33528;DHT22;19861;42.868;74.608;2022-08-25T06:03:19;23.70;40.50
33528;DHT22;19861;42.868;74.608;2022-08-25T06:05:46;23.80;40.90
33528;DHT22;19861;42.868;74.608;2022-08-25T06:08:12;24.00;41.20
33528;DHT22;19861;42.868;74.608;2022-08-25T06:10:38;24.20;39.90
33528;DHT22;19861;42.868;74.608;2022-08-25T06:13:04;24.20;39.40
33528;DHT22;19861;42.868;74.608;2022-08-25T06:15:31;24.10;39.60
33528;DHT22;19861;42.868;74.608;2022-08-25T06:17:58;23.80;40.40
33528;DHT22;19861;42.868;74.608;2022-08-25T06:20:27;23.90;40.60
33528;DHT22;19861;42.868;74.608;2022-08-25T06:22:58;24.10;40.00
33528;DHT22;19861;42.868;74.608;2022-08-25T06:25:27;24.10;39.80
33528;DHT22;19861;42.868;74.608;2022-08-25T06:27:57;24.00;41.40
33528;DHT22;19861;42.868;74.608;2022-08-25T06:30:23;24.30;40.40
33528;DHT22;19861;42.868;74.608;2022-08-25T06:32:50;24.40;39.50
33528;DHT22;19861;42.868;74.608;2022-08-25T06:35:18;24.30;39.10
33528;DHT22;19861;42.868;74.608;2022-08-25T06:37:45;24.30;38.70
33528;DHT22;19861;42.868;74.608;2022-08-25T06:40:13;24.40;39.40
33528;DHT22;19861;42.868;74.608;2022-08-25T06:42:40;24.40;39.40
33528;DHT22;19861;42.868;74.608;2022-08-25T06:45:07;24.50;39.00
33528;DHT22;19861;42.868;74.608;2022-08-25T06:47:34;24.60;39.30
33528;DHT22;19861;42.868;74.608;2022-08-25T06:50:00;24.80;38.90
33528;DHT22;19861;42.868;74.608;2022-08-25T06:52:29;24.90;39.20
33528;DHT22;19861;42.868;74.608;2022-08-25T06:54:56;25.10;38.60
33528;DHT22;19861;42.868;74.608;2022-08-25T06:57:22;25.10;38.00
33528;DHT22;19861;42.868;74.608;2022-08-25T06:59:48;25.20;39.40
33528;DHT22;19861;42.868;74.608;2022-08-25T07:02:14;25.20;38.70
33528;DHT22;19861;42.868;74.608;2022-08-25T07:04:46;25.30;38.80
33528;DHT22;19861;42.868;74.608;2022-08-25T07:07:12;25.20;39.70
33528;DHT22;19861;42.868;74.608;2022-08-25T07:09:38;25.20;39.70
33528;DHT22;19861;42.868;74.608;2022-08-25T07:12:23;25.10;39.30
33528;DHT22;19861;42.868;74.608;2022-08-25T07:15:01;25.10;38.30
33528;DHT22;19861;42.868;74.608;2022-08-25T07:17:27;25.10;38.50
33528;DHT22;19861;42.868;74.608;2022-08-25T07:19:53;25.20;38.70
33528;DHT22;19861;42.868;74.608;2022-08-25T07:22:20;25.50;38.80
33528;DHT22;19861;42.868;74.608;2022-08-25T07:24:46;25.00;38.70
33528;DHT22;19861;42.868;74.608;2022-08-25T07:27:12;24.90;39.00
33528;DHT22;19861;42.868;74.608;2022-08-25T07:29:38;25.20;38.70
33528;DHT22;19861;42.868;74.608;2022-08-25T07:32:05;25.30;38.50
33528;DHT22;19861;42.868;74.608;2022-08-25T07:34:31;25.40;39.00
33528;DHT22;19861;42.868;74.608;2022-08-25T07:37:18;25.60;38.30
33528;DHT22;19861;42.868;74.608;2022-08-25T07:39:44;25.60;38.80
33528;DHT22;19861;42.868;74.608;2022-08-25T07:42:12;25.90;38.20
33528;DHT22;19861;42.868;74.608;2022-08-25T07:44:38;26.00;38.00
33528;DHT22;19861;42.868;74.608;2022-08-25T07:47:07;26.20;37.40
33528;DHT22;19861;42.868;74.608;2022-08-25T07:49:34;26.20;37.00
33528;DHT22;19861;42.868;74.608;2022-08-25T07:52:00;26.60;37.20
33528;DHT22;19861;42.868;74.608;2022-08-25T07:54:26;26.50;37.10
33528;DHT22;19861;42.868;74.608;2022-08-25T07:56:52;25.90;36.70
33528;DHT22;19861;42.868;74.608;2022-08-25T07:59:18;25.90;37.20
33528;DHT22;19861;42.868;74.608;2022-08-25T08:01:45;26.10;37.00
33528;DHT22;19861;42.868;74.608;2022-08-25T08:04:11;26.00;37.10
33528;DHT22;19861;42.868;74.608;2022-08-25T08:06:38;25.50;37.70
33528;DHT22;19861;42.868;74.608;2022-08-25T08:09:07;25.70;38.60
33528;DHT22;19861;42.868;74.608;2022-08-25T08:11:35;26.10;38.90
33528;DHT22;19861;42.868;74.608;2022-08-25T08:14:06;26.30;37.90
33528;DHT22;19861;42.868;74.608;2022-08-25T08:16:33;26.10;37.90
33528;DHT22;19861;42.868;74.608;2022-08-25T08:18:59;26.50;36.60
33528;DHT22;19861;42.868;74.608;2022-08-25T08:21:32;26.30;36.30
33528;DHT22;19861;42.868;74.608;2022-08-25T08:23:59;26.10;36.90
33528;DHT22;19861;42.868;74.608;2022-08-25T08:26:26;26.20;36.60
33528;DHT22;19861;42.868;74.608;2022-08-25T08:28:53;26.20;37.70
33528;DHT22;19861;42.868;74.608;2022-08-25T08:31:22;26.30;37.80
33528;DHT22;19861;42.868;74.608;2022-08-25T08:33:49;26.50;38.10
33528;DHT22;19861;42.868;74.608;2022-08-25T08:36:16;26.70;36.20
33528;DHT22;19861;42.868;74.608;2022-08-25T08:38:44;26.60;36.10
33528;DHT22;19861;42.868;74.608;2022-08-25T08:41:32;27.20;36.40
33528;DHT22;19861;42.868;74.608;2022-08-25T08:47:15;27.30;35.70
33528;DHT22;19861;42.868;74.608;2022-08-25T08:52:43;27.50;35.80
33528;DHT22;19861;42.868;74.608;2022-08-25T08:55:29;26.90;37.40
33528;DHT22;19861;42.868;74.608;2022-08-25T08:57:59;27.10;36.60
33528;DHT22;19861;42.868;74.608;2022-08-25T09:00:28;27.30;36.40
33528;DHT22;19861;42.868;74.608;2022-08-25T09:03:06;27.60;36.20
33528;DHT22;19861;42.868;74.608;2022-08-25T09:05:43;27.60;36.00
33528;DHT22;19861;42.868;74.608;2022-08-25T09:08:12;27.50;36.20
33528;DHT22;19861;42.868;74.608;2022-08-25T09:13:31;27.50;35.50
33528;DHT22;19861;42.868;74.608;2022-08-25T09:16:19;27.40;36.20
33528;DHT22;19861;42.868;74.608;2022-08-25T09:27:50;27.00;36.90
33528;DHT22;19861;42.868;74.608;2022-08-25T09:30:19;27.20;37.00
33528;DHT22;19861;42.868;74.608;2022-08-25T09:32:55;27.30;35.90
33528;DHT22;19861;42.868;74.608;2022-08-25T09:35:34;27.10;36.20
33528;DHT22;19861;42.868;74.608;2022-08-25T09:38:07;26.80;36.00
33528;DHT22;19861;42.868;74.608;2022-08-25T09:40:46;26.70;36.10
33528;DHT22;19861;42.868;74.608;2022-08-25T09:48:41;27.30;35.50
33528;DHT22;19861;42.868;74.608;2022-08-25T09:54:04;27.00;34.80
33528;DHT22;19861;42.868;74.608;2022-08-25T09:56:33;27.40;35.20
33528;DHT22;19861;42.868;74.608;2022-08-25T09:59:26;27.30;34.80
33528;DHT22;19861;42.868;74.608;2022-08-25T10:01:57;27.40;34.20
33528;DHT22;19861;42.868;74.608;2022-08-25T10:04:32;27.00;35.20
33528;DHT22;19861;42.868;74.608;2022-08-25T10:06:59;27.50;35.50
33528;DHT22;19861;42.868;74.608;2022-08-25T10:09:41;27.90;34.70
33528;DHT22;19861;42.868;74.608;2022-08-25T10:12:23;28.20;34.60
33528;DHT22;19861;42.868;74.608;2022-08-25T10:14:54;28.30;33.80
33528;DHT22;19861;42.868;74.608;2022-08-25T10:22:43;28.30;33.80
33528;DHT22;19861;42.868;74.608;2022-08-25T10:25:12;28.10;34.30
33528;DHT22;19861;42.868;74.608;2022-08-25T10:30:56;27.70;35.40
33528;DHT22;19861;42.868;74.608;2022-08-25T10:38:50;27.40;35.90
33528;DHT22;19861;42.868;74.608;2022-08-25T10:44:17;27.40;36.30
33528;DHT22;19861;42.868;74.608;2022-08-25T10:50:04;28.10;35.20
33528;DHT22;19861;42.868;74.608;2022-08-25T10:58:48;28.20;34.90
33528;DHT22;19861;42.868;74.608;2022-08-25T11:01:52;28.40;33.90
33528;DHT22;19861;42.868;74.608;2022-08-25T11:04:45;28.40;32.80
33528;DHT22;19861;42.868;74.608;2022-08-25T11:10:10;28.40;33.60
33528;DHT22;19861;42.868;74.608;2022-08-25T11:12:50;28.50;32.90
33528;DHT22;19861;42.868;74.608;2022-08-25T11:15:28;28.30;33.30
33528;DHT22;19861;42.868;74.608;2022-08-25T11:18:09;28.40;33.40
33528;DHT22;19861;42.868;74.608;2022-08-25T11:20:59;28.30;33.50
33528;DHT22;19861;42.868;74.608;2022-08-25T11:24:06;28.40;34.30
33528;DHT22;19861;42.868;74.608;2022-08-25T11:26:36;28.10;33.60
33528;DHT22;19861;42.868;74.608;2022-08-25T11:29:11;28.20;33.40
33528;DHT22;19861;42.868;74.608;2022-08-25T11:31:41;28.20;33.50
33528;DHT22;19861;42.868;74.608;2022-08-25T11:34:11;28.40;32.70
33528;DHT22;19861;42.868;74.608;2022-08-25T11:36:50;28.10;33.20
33528;DHT22;19861;42.868;74.608;2022-08-25T11:45:36;28.20;32.30
33528;DHT22;19861;42.868;74.608;2022-08-25T11:51:09;28.20;32.00
33528;DHT22;19861;42.868;74.608;2022-08-25T11:53:39;28.00;32.20
33528;DHT22;19861;42.868;74.608;2022-08-25T11:56:32;28.00;31.80
33528;DHT22;19861;42.868;74.608;2022-08-25T11:58:57;28.00;32.30
33528;DHT22;19861;42.868;74.608;2022-08-25T12:04:39;27.80;31.90
33528;DHT22;19861;42.868;74.608;2022-08-25T12:15:26;27.50;32.40
33528;DHT22;19861;42.868;74.608;2022-08-25T12:23:28;27.30;32.40
33528;DHT22;19861;42.868;74.608;2022-08-25T12:25:58;27.40;32.60
33528;DHT22;19861;42.868;74.608;2022-08-25T12:31:57;27.20;32.40
33528;DHT22;19861;42.868;74.608;2022-08-25T12:37:32;27.00;32.80
33528;DHT22;19861;42.868;74.608;2022-08-25T12:40:01;27.00;32.90
33528;DHT22;19861;42.868;74.608;2022-08-25T12:42:37;27.00;32.90
33528;DHT22;19861;42.868;74.608;2022-08-25T12:47:47;26.80;33.30
33528;DHT22;19861;42.868;74.608;2022-08-25T12:50:40;26.80;33.30
33528;DHT22;19861;42.868;74.608;2022-08-25T12:53:39;26.70;33.60
33528;DHT22;19861;42.868;74.608;2022-08-25T12:59:34;26.70;33.70
33528;DHT22;19861;42.868;74.608;2022-08-25T13:10:43;26.30;34.40
33528;DHT22;19861;42.868;74.608;2022-08-25T13:15:46;26.40;34.60
33528;DHT22;19861;42.868;74.608;2022-08-25T13:23:37;26.30;34.40
33528;DHT22;19861;42.868;74.608;2022-08-25T13:26:05;26.30;34.50
33528;DHT22;19861;42.868;74.608;2022-08-25T13:28:36;26.20;35.00
33528;DHT22;19861;42.868;74.608;2022-08-25T13:31:19;26.00;34.40
33528;DHT22;19861;42.868;74.608;2022-08-25T13:34:17;25.80;34.60
33528;DHT22;19861;42.868;74.608;2022-08-25T13:36:46;25.60;35.20
33528;DHT22;19861;42.868;74.608;2022-08-25T13:39:31;25.30;36.00
33528;DHT22;19861;42.868;74.608;2022-08-25T13:41:59;25.10;36.70
33528;DHT22;19861;42.868;74.608;2022-08-25T13:44:28;25.00;36.70
33528;DHT22;19861;42.868;74.608;2022-08-25T13:47:30;24.90;36.60
33528;DHT22;19861;42.868;74.608;2022-08-25T13:55:31;25.30;36.00
33528;DHT22;19861;42.868;74.608;2022-08-25T13:57:59;25.30;35.90
33528;DHT22;19861;42.868;74.608;2022-08-25T14:00:33;25.20;36.00
33528;DHT22;19861;42.868;74.608;2022-08-25T14:03:02;25.30;36.20
33528;DHT22;19861;42.868;74.608;2022-08-25T14:05:41;25.30;36.20
33528;DHT22;19861;42.868;74.608;2022-08-25T14:08:31;24.90;36.60
33528;DHT22;19861;42.868;74.608;2022-08-25T14:13:34;25.00;36.00
33528;DHT22;19861;42.868;74.608;2022-08-25T14:18:37;25.20;35.30
33528;DHT22;19861;42.868;74.608;2022-08-25T14:21:23;25.20;35.50
33528;DHT22;19861;42.868;74.608;2022-08-25T14:23:51;25.20;35.40
33528;DHT22;19861;42.868;74.608;2022-08-25T14:26:18;25.20;35.30
33528;DHT22;19861;42.868;74.608;2022-08-25T14:28:44;25.10;35.30
33528;DHT22;19861;42.868;74.608;2022-08-25T14:31:23;24.90;35.70
33528;DHT22;19861;42.868;74.608;2022-08-25T14:33:57;24.60;37.00
33528;DHT22;19861;42.868;74.608;2022-08-25T14:36:24;24.40;37.70
33528;DHT22;19861;42.868;74.608;2022-08-25T14:38:51;24.20;38.20
33528;DHT22;19861;42.868;74.608;2022-08-25T14:41:19;24.10;38.30
33528;DHT22;19861;42.868;74.608;2022-08-25T14:43:46;24.00;38.70
33528;DHT22;19861;42.868;74.608;2022-08-25T14:46:33;24.00;38.90
33528;DHT22;19861;42.868;74.608;2022-08-25T14:49:03;24.00;39.30
33528;DHT22;19861;42.868;74.608;2022-08-25T14:51:32;23.80;39.60
33528;DHT22;19861;42.868;74.608;2022-08-25T14:54:02;23.70;39.60
33528;DHT22;19861;42.868;74.608;2022-08-25T14:56:30;23.80;39.00
33528;DHT22;19861;42.868;74.608;2022-08-25T14:58:56;23.80;39.50
33528;DHT22;19861;42.868;74.608;2022-08-25T15:01:23;23.90;37.70
33528;DHT22;19861;42.868;74.608;2022-08-25T15:03:52;24.00;37.50
33528;DHT22;19861;42.868;74.608;2022-08-25T15:06:20;24.10;37.30
33528;DHT22;19861;42.868;74.608;2022-08-25T15:08:46;24.20;37.20
33528;DHT22;19861;42.868;74.608;2022-08-25T15:11:51;24.00;37.20
33528;DHT22;19861;42.868;74.608;2022-08-25T15:14:20;23.90;37.60
33528;DHT22;19861;42.868;74.608;2022-08-25T15:16:55;23.90;37.50
33528;DHT22;19861;42.868;74.608;2022-08-25T15:19:24;23.90;37.90
33528;DHT22;19861;42.868;74.608;2022-08-25T15:21:51;23.80;37.60
33528;DHT22;19861;42.868;74.608;2022-08-25T15:24:19;23.90;37.70
33528;DHT22;19861;42.868;74.608;2022-08-25T15:26:49;23.80;37.90
33528;DHT22;19861;42.868;74.608;2022-08-25T15:29:17;23.80;37.70
33528;DHT22;19861;42.868;74.608;2022-08-25T15:31:43;23.80;37.70
33528;DHT22;19861;42.868;74.608;2022-08-25T15:34:10;23.80;38.10
33528;DHT22;19861;42.868;74.608;2022-08-25T15:36:36;23.80;38.00
33528;DHT22;19861;42.868;74.608;2022-08-25T15:39:04;23.80;37.90
33528;DHT22;19861;42.868;74.608;2022-08-25T15:41:30;23.90;38.30
33528;DHT22;19861;42.868;74.608;2022-08-25T15:43:57;23.90;38.20
33528;DHT22;19861;42.868;74.608;2022-08-25T15:46:26;23.70;38.80
33528;DHT22;19861;42.868;74.608;2022-08-25T15:48:55;23.60;39.30
33528;DHT22;19861;42.868;74.608;2022-08-25T15:51:22;23.70;39.10
33528;DHT22;19861;42.868;74.608;2022-08-25T15:53:49;23.70;39.00
33528;DHT22;19861;42.868;74.608;2022-08-25T15:56:15;23.70;39.40
33528;DHT22;19861;42.868;74.608;2022-08-25T15:58:44;23.60;39.40
33528;DHT22;19861;42.868;74.608;2022-08-25T16:01:20;23.70;39.90
33528;DHT22;19861;42.868;74.608;2022-08-25T16:03:46;23.50;40.30
33528;DHT22;19861;42.868;74.608;2022-08-25T16:06:13;23.40;40.90
33528;DHT22;19861;42.868;74.608;2022-08-25T16:08:39;23.20;41.30
33528;DHT22;19861;42.868;74.608;2022-08-25T16:11:16;23.40;40.30
33528;DHT22;19861;42.868;74.608;2022-08-25T16:13:43;23.30;39.90
33528;DHT22;19861;42.868;74.608;2022-08-25T16:16:16;23.30;40.10
33528;DHT22;19861;42.868;74.608;2022-08-25T16:18:43;23.20;40.00
33528;DHT22;19861;42.868;74.608;2022-08-25T16:21:11;23.30;39.80
33528;DHT22;19861;42.868;74.608;2022-08-25T16:23:38;23.10;40.20
33528;DHT22;19861;42.868;74.608;2022-08-25T16:26:06;22.80;40.70
33528;DHT22;19861;42.868;74.608;2022-08-25T16:28:38;22.70;41.00
33528;DHT22;19861;42.868;74.608;2022-08-25T16:31:11;22.50;41.30
33528;DHT22;19861;42.868;74.608;2022-08-25T16:33:38;22.40;41.40
33528;DHT22;19861;42.868;74.608;2022-08-25T16:36:06;22.40;41.20
33528;DHT22;19861;42.868;74.608;2022-08-25T16:38:35;22.50;40.80
33528;DHT22;19861;42.868;74.608;2022-08-25T16:41:11;22.50;40.80
33528;DHT22;19861;42.868;74.608;2022-08-25T16:43:38;22.70;40.40
33528;DHT22;19861;42.868;74.608;2022-08-25T16:46:08;22.70;40.30
33528;DHT22;19861;42.868;74.608;2022-08-25T16:48:35;22.60;40.20
33528;DHT22;19861;42.868;74.608;2022-08-25T16:51:15;22.70;40.10
33528;DHT22;19861;42.868;74.608;2022-08-25T16:53:42;22.70;39.90
33528;DHT22;19861;42.868;74.608;2022-08-25T16:56:39;22.80;39.70
33528;DHT22;19861;42.868;74.608;2022-08-25T16:59:08;22.70;39.60
33528;DHT22;19861;42.868;74.608;2022-08-25T17:01:35;22.80;39.50
33528;DHT22;19861;42.868;74.608;2022-08-25T17:04:03;22.80;39.40
33528;DHT22;19861;42.868;74.608;2022-08-25T17:06:34;22.80;39.40
33528;DHT22;19861;42.868;74.608;2022-08-25T17:09:01;22.80;39.50
33528;DHT22;19861;42.868;74.608;2022-08-25T17:11:32;22.80;39.60
33528;DHT22;19861;42.868;74.608;2022-08-25T17:14:04;22.80;39.80
33528;DHT22;19861;42.868;74.608;2022-08-25T17:16:32;22.70;40.00
33528;DHT22;19861;42.868;74.608;2022-08-25T17:19:01;22.60;40.10
33528;DHT22;19861;42.868;74.608;2022-08-25T17:21:32;22.60;40.10
33528;DHT22;19861;42.868;74.608;2022-08-25T17:23:58;22.70;40.20
33528;DHT22;19861;42.868;74.608;2022-08-25T17:26:26;22.60;40.60
33528;DHT22;19861;42.868;74.608;2022-08-25T17:28:53;22.80;40.30
33528;DHT22;19861;42.868;74.608;2022-08-25T17:31:19;22.80;40.00
33528;DHT22;19861;42.868;74.608;2022-08-25T17:33:46;22.70;40.30
33528;DHT22;19861;42.868;74.608;2022-08-25T17:36:12;22.60;41.20
33528;DHT22;19861;42.868;74.608;2022-08-25T17:38:39;22.50;42.20